sensor_id;sensor_type;location;lat;lon;timestamp;P1;durP1;ratioP1;P2;durP2;ratioP2
6513;SDS011;3290;47.716;9.070;2024-02-21T00:01:16;4.10;;;2.73;;
6513;SDS011;3290;47.716;9.070;2024-02-21T00:03:42;9.00;;;2.90;;
6513;SDS011;3290;47.716;9.070;2024-02-21T00:06:07;7.97;;;3.30;;
6513;SDS011;3290;47.716;9.070;2024-02-21T00:08:33;6.10;;;3.30;;
6513;SDS011;3290;47.716;9.070;2024-02-21T00:10:58;7.30;;;3.03;;
6513;SDS011;3290;47.716;9.070;2024-02-21T00:13:24;8.77;;;3.67;;
6513;SDS011;3290;47.716;9.070;2024-02-21T00:15:49;14.37;;;4.53;;
6513;SDS011;3290;47.716;9.070;2024-02-21T00:18:14;8.40;;;3.90;;
6513;SDS011;3290;47.716;9.070;2024-02-21T00:20:40;9.30;;;3.63;;
6513;SDS011;3290;47.716;9.070;2024-02-21T00:23:05;8.47;;;3.47;;
6513;SDS011;3290;47.716;9.070;2024-02-21T00:25:30;11.73;;;4.00;;
6513;SDS011;3290;47.716;9.070;2024-02-21T00:27:56;5.83;;;3.43;;
6513;SDS011;3290;47.716;9.070;2024-02-21T00:30:21;18.80;;;4.00;;
6513;SDS011;3290;47.716;9.070;2024-02-21T00:32:47;9.80;;;3.57;;
6513;SDS011;3290;47.716;9.070;2024-02-21T00:35:13;9.27;;;3.37;;
6513;SDS011;3290;47.716;9.070;2024-02-21T00:37:39;11.93;;;4.00;;
6513;SDS011;3290;47.716;9.070;2024-02-21T00:40:04;7.67;;;3.27;;
6513;SDS011;3290;47.716;9.070;2024-02-21T00:42:30;7.73;;;3.10;;
6513;SDS011;3290;47.716;9.070;2024-02-21T00:44:56;16.53;;;3.70;;
6513;SDS011;3290;47.716;9.070;2024-02-21T00:47:21;9.30;;;4.83;;
6513;SDS011;3290;47.716;9.070;2024-02-21T00:49:46;10.40;;;4.43;;
6513;SDS011;3290;47.716;9.070;2024-02-21T00:52:12;6.83;;;3.30;;
6513;SDS011;3290;47.716;9.070;2024-02-21T00:54:37;9.57;;;3.93;;
6513;SDS011;3290;47.716;9.070;2024-02-21T00:57:02;9.57;;;2.87;;
6513;SDS011;3290;47.716;9.070;2024-02-21T00:59:28;9.57;;;3.80;;
6513;SDS011;3290;47.716;9.070;2024-02-21T01:01:53;6.90;;;3.13;;
6513;SDS011;3290;47.716;9.070;2024-02-21T01:04:19;9.23;;;3.27;;
6513;SDS011;3290;47.716;9.070;2024-02-21T01:06:44;11.90;;;5.20;;
6513;SDS011;3290;47.716;9.070;2024-02-21T01:09:10;7.07;;;4.30;;
6513;SDS011;3290;47.716;9.070;2024-02-21T01:11:36;9.37;;;4.50;;
6513;SDS011;3290;47.716;9.070;2024-02-21T01:14:01;13.20;;;5.10;;
6513;SDS011;3290;47.716;9.070;2024-02-21T01:16:27;13.20;;;5.03;;
6513;SDS011;3290;47.716;9.070;2024-02-21T01:18:52;11.20;;;5.57;;
6513;SDS011;3290;47.716;9.070;2024-02-21T01:21:18;5.27;;;3.57;;
6513;SDS011;3290;47.716;9.070;2024-02-21T01:23:43;12.43;;;3.60;;
6513;SDS011;3290;47.716;9.070;2024-02-21T01:26:08;5.80;;;3.50;;
6513;SDS011;3290;47.716;9.070;2024-02-21T01:28:37;13.83;;;3.30;;
6513;SDS011;3290;47.716;9.070;2024-02-21T01:31:03;5.50;;;3.50;;
6513;SDS011;3290;47.716;9.070;2024-02-21T01:33:28;11.60;;;3.87;;
6513;SDS011;3290;47.716;9.070;2024-02-21T01:35:59;7.93;;;3.80;;
6513;SDS011;3290;47.716;9.070;2024-02-21T01:38:25;14.00;;;4.30;;
6513;SDS011;3290;47.716;9.070;2024-02-21T01:40:50;5.03;;;3.30;;
6513;SDS011;3290;47.716;9.070;2024-02-21T01:43:16;9.83;;;4.03;;
6513;SDS011;3290;47.716;9.070;2024-02-21T01:45:45;8.60;;;3.37;;
6513;SDS011;3290;47.716;9.070;2024-02-21T01:48:13;7.47;;;3.80;;
6513;SDS011;3290;47.716;9.070;2024-02-21T01:50:39;8.20;;;3.80;;
6513;SDS011;3290;47.716;9.070;2024-02-21T01:53:05;12.87;;;3.43;;
6513;SDS011;3290;47.716;9.070;2024-02-21T01:55:32;4.67;;;3.33;;
6513;SDS011;3290;47.716;9.070;2024-02-21T01:57:57;14.13;;;4.07;;
6513;SDS011;3290;47.716;9.070;2024-02-21T02:00:24;8.50;;;4.30;;
6513;SDS011;3290;47.716;9.070;2024-02-21T02:02:49;12.43;;;3.77;;
6513;SDS011;3290;47.716;9.070;2024-02-21T02:05:15;10.50;;;4.80;;
6513;SDS011;3290;47.716;9.070;2024-02-21T02:07:42;9.43;;;3.93;;
6513;SDS011;3290;47.716;9.070;2024-02-21T02:10:07;8.00;;;3.90;;
6513;SDS011;3290;47.716;9.070;2024-02-21T02:12:35;12.60;;;5.40;;
6513;SDS011;3290;47.716;9.070;2024-02-21T02:15:01;9.63;;;4.33;;
6513;SDS011;3290;47.716;9.070;2024-02-21T02:17:29;9.23;;;3.43;;
6513;SDS011;3290;47.716;9.070;2024-02-21T02:19:55;16.23;;;6.23;;
6513;SDS011;3290;47.716;9.070;2024-02-21T02:22:22;13.03;;;6.40;;
6513;SDS011;3290;47.716;9.070;2024-02-21T02:24:50;8.53;;;4.17;;
6513;SDS011;3290;47.716;9.070;2024-02-21T02:27:16;8.97;;;4.33;;
6513;SDS011;3290;47.716;9.070;2024-02-21T02:29:41;19.37;;;6.50;;
6513;SDS011;3290;47.716;9.070;2024-02-21T02:32:07;16.47;;;4.90;;
6513;SDS011;3290;47.716;9.070;2024-02-21T02:34:32;17.17;;;4.67;;
6513;SDS011;3290;47.716;9.070;2024-02-21T02:36:57;7.80;;;3.43;;
6513;SDS011;3290;47.716;9.070;2024-02-21T02:39:23;16.07;;;3.67;;
6513;SDS011;3290;47.716;9.070;2024-02-21T02:41:48;6.60;;;3.67;;
6513;SDS011;3290;47.716;9.070;2024-02-21T02:44:14;4.87;;;2.90;;
6513;SDS011;3290;47.716;9.070;2024-02-21T02:46:42;4.23;;;2.83;;
6513;SDS011;3290;47.716;9.070;2024-02-21T02:49:08;14.57;;;3.40;;
6513;SDS011;3290;47.716;9.070;2024-02-21T02:51:33;12.20;;;3.70;;
6513;SDS011;3290;47.716;9.070;2024-02-21T02:53:59;10.17;;;4.10;;
6513;SDS011;3290;47.716;9.070;2024-02-21T02:56:24;9.20;;;3.10;;
6513;SDS011;3290;47.716;9.070;2024-02-21T02:58:50;11.70;;;3.77;;
6513;SDS011;3290;47.716;9.070;2024-02-21T03:01:15;14.00;;;4.20;;
6513;SDS011;3290;47.716;9.070;2024-02-21T03:03:40;9.63;;;3.40;;
6513;SDS011;3290;47.716;9.070;2024-02-21T03:06:06;6.50;;;3.33;;
6513;SDS011;3290;47.716;9.070;2024-02-21T03:08:31;9.70;;;4.03;;
6513;SDS011;3290;47.716;9.070;2024-02-21T03:10:58;10.70;;;3.93;;
6513;SDS011;3290;47.716;9.070;2024-02-21T03:13:24;10.87;;;3.80;;
6513;SDS011;3290;47.716;9.070;2024-02-21T03:15:50;10.10;;;3.87;;
6513;SDS011;3290;47.716;9.070;2024-02-21T03:18:15;17.10;;;4.03;;
6513;SDS011;3290;47.716;9.070;2024-02-21T03:20:41;7.87;;;3.17;;
6513;SDS011;3290;47.716;9.070;2024-02-21T03:23:06;10.70;;;3.90;;
6513;SDS011;3290;47.716;9.070;2024-02-21T03:25:32;5.93;;;3.13;;
6513;SDS011;3290;47.716;9.070;2024-02-21T03:27:57;12.23;;;3.10;;
6513;SDS011;3290;47.716;9.070;2024-02-21T03:30:22;8.40;;;3.97;;
6513;SDS011;3290;47.716;9.070;2024-02-21T03:32:48;15.13;;;3.47;;
6513;SDS011;3290;47.716;9.070;2024-02-21T03:35:13;9.70;;;3.90;;
6513;SDS011;3290;47.716;9.070;2024-02-21T03:37:39;7.60;;;3.80;;
6513;SDS011;3290;47.716;9.070;2024-02-21T03:40:08;20.23;;;4.10;;
6513;SDS011;3290;47.716;9.070;2024-02-21T03:42:34;10.30;;;3.43;;
6513;SDS011;3290;47.716;9.070;2024-02-21T03:44:59;7.73;;;3.93;;
6513;SDS011;3290;47.716;9.070;2024-02-21T03:47:24;14.23;;;4.30;;
6513;SDS011;3290;47.716;9.070;2024-02-21T03:49:50;7.00;;;3.97;;
6513;SDS011;3290;47.716;9.070;2024-02-21T03:52:15;9.13;;;3.97;;
6513;SDS011;3290;47.716;9.070;2024-02-21T03:54:41;10.57;;;3.53;;
6513;SDS011;3290;47.716;9.070;2024-02-21T03:57:07;8.13;;;3.23;;
6513;SDS011;3290;47.716;9.070;2024-02-21T03:59:32;16.40;;;4.80;;
6513;SDS011;3290;47.716;9.070;2024-02-21T04:01:58;9.87;;;4.37;;
6513;SDS011;3290;47.716;9.070;2024-02-21T04:04:24;9.30;;;4.60;;
6513;SDS011;3290;47.716;9.070;2024-02-21T04:06:49;16.63;;;4.90;;
6513;SDS011;3290;47.716;9.070;2024-02-21T04:09:15;8.63;;;4.00;;
6513;SDS011;3290;47.716;9.070;2024-02-21T04:11:41;14.03;;;3.90;;
6513;SDS011;3290;47.716;9.070;2024-02-21T04:14:06;22.30;;;4.43;;
6513;SDS011;3290;47.716;9.070;2024-02-21T04:16:32;11.50;;;4.17;;
6513;SDS011;3290;47.716;9.070;2024-02-21T04:18:57;6.27;;;4.07;;
6513;SDS011;3290;47.716;9.070;2024-02-21T04:21:23;8.17;;;3.50;;
6513;SDS011;3290;47.716;9.070;2024-02-21T04:23:48;12.47;;;4.50;;
6513;SDS011;3290;47.716;9.070;2024-02-21T04:26:13;10.63;;;4.73;;
6513;SDS011;3290;47.716;9.070;2024-02-21T04:28:39;11.87;;;4.97;;
6513;SDS011;3290;47.716;9.070;2024-02-21T04:31:04;10.83;;;4.83;;
6513;SDS011;3290;47.716;9.070;2024-02-21T04:33:30;17.20;;;5.53;;
6513;SDS011;3290;47.716;9.070;2024-02-21T04:35:55;13.37;;;4.70;;
6513;SDS011;3290;47.716;9.070;2024-02-21T04:38:21;9.87;;;5.10;;
6513;SDS011;3290;47.716;9.070;2024-02-21T04:40:46;9.17;;;4.83;;
6513;SDS011;3290;47.716;9.070;2024-02-21T04:43:11;11.03;;;5.60;;
6513;SDS011;3290;47.716;9.070;2024-02-21T04:45:37;10.67;;;5.30;;
6513;SDS011;3290;47.716;9.070;2024-02-21T04:48:02;12.30;;;5.53;;
6513;SDS011;3290;47.716;9.070;2024-02-21T04:50:28;13.87;;;6.73;;
6513;SDS011;3290;47.716;9.070;2024-02-21T04:52:53;11.70;;;5.90;;
6513;SDS011;3290;47.716;9.070;2024-02-21T04:55:18;11.80;;;5.87;;
6513;SDS011;3290;47.716;9.070;2024-02-21T04:57:44;9.87;;;5.87;;
6513;SDS011;3290;47.716;9.070;2024-02-21T05:00:09;14.90;;;5.70;;
6513;SDS011;3290;47.716;9.070;2024-02-21T05:02:35;18.13;;;6.03;;
6513;SDS011;3290;47.716;9.070;2024-02-21T05:05:01;12.63;;;5.40;;
6513;SDS011;3290;47.716;9.070;2024-02-21T05:07:27;14.57;;;5.67;;
6513;SDS011;3290;47.716;9.070;2024-02-21T05:09:52;13.17;;;6.20;;
6513;SDS011;3290;47.716;9.070;2024-02-21T05:12:18;14.33;;;5.83;;
6513;SDS011;3290;47.716;9.070;2024-02-21T05:14:43;9.07;;;4.47;;
6513;SDS011;3290;47.716;9.070;2024-02-21T05:17:08;12.83;;;6.07;;
6513;SDS011;3290;47.716;9.070;2024-02-21T05:19:34;14.50;;;5.30;;
6513;SDS011;3290;47.716;9.070;2024-02-21T05:21:59;14.30;;;5.30;;
6513;SDS011;3290;47.716;9.070;2024-02-21T05:24:25;14.20;;;5.30;;
6513;SDS011;3290;47.716;9.070;2024-02-21T05:26:51;15.50;;;6.23;;
6513;SDS011;3290;47.716;9.070;2024-02-21T05:29:16;14.13;;;5.10;;
6513;SDS011;3290;47.716;9.070;2024-02-21T05:34:19;15.13;;;5.13;;
6513;SDS011;3290;47.716;9.070;2024-02-21T05:36:45;15.13;;;5.10;;
6513;SDS011;3290;47.716;9.070;2024-02-21T05:39:11;10.10;;;4.90;;
6513;SDS011;3290;47.716;9.070;2024-02-21T05:41:37;11.00;;;4.90;;
6513;SDS011;3290;47.716;9.070;2024-02-21T05:44:02;6.83;;;4.27;;
6513;SDS011;3290;47.716;9.070;2024-02-21T05:46:28;8.07;;;5.00;;
6513;SDS011;3290;47.716;9.070;2024-02-21T05:48:53;10.77;;;5.10;;
6513;SDS011;3290;47.716;9.070;2024-02-21T05:51:19;11.77;;;5.70;;
6513;SDS011;3290;47.716;9.070;2024-02-21T05:53:44;11.63;;;5.37;;
6513;SDS011;3290;47.716;9.070;2024-02-21T05:56:10;15.13;;;7.47;;
6513;SDS011;3290;47.716;9.070;2024-02-21T05:58:36;15.60;;;7.07;;
6513;SDS011;3290;47.716;9.070;2024-02-21T06:01:02;16.63;;;6.80;;
6513;SDS011;3290;47.716;9.070;2024-02-21T06:03:28;15.93;;;7.23;;
6513;SDS011;3290;47.716;9.070;2024-02-21T06:05:54;17.73;;;7.30;;
6513;SDS011;3290;47.716;9.070;2024-02-21T06:08:20;13.40;;;6.23;;
6513;SDS011;3290;47.716;9.070;2024-02-21T06:10:45;26.03;;;12.07;;
6513;SDS011;3290;47.716;9.070;2024-02-21T06:13:11;43.37;;;14.20;;
6513;SDS011;3290;47.716;9.070;2024-02-21T06:15:36;33.10;;;10.70;;
6513;SDS011;3290;47.716;9.070;2024-02-21T06:18:02;14.67;;;7.83;;
6513;SDS011;3290;47.716;9.070;2024-02-21T06:20:27;21.50;;;7.60;;
6513;SDS011;3290;47.716;9.070;2024-02-21T06:22:53;14.10;;;7.90;;
6513;SDS011;3290;47.716;9.070;2024-02-21T06:25:19;14.70;;;7.87;;
6513;SDS011;3290;47.716;9.070;2024-02-21T06:27:44;30.17;;;8.80;;
6513;SDS011;3290;47.716;9.070;2024-02-21T06:30:09;33.87;;;11.80;;
6513;SDS011;3290;47.716;9.070;2024-02-21T06:32:38;24.60;;;11.33;;
6513;SDS011;3290;47.716;9.070;2024-02-21T06:35:04;18.43;;;7.73;;
6513;SDS011;3290;47.716;9.070;2024-02-21T06:37:30;16.63;;;9.93;;
6513;SDS011;3290;47.716;9.070;2024-02-21T06:39:57;23.53;;;6.73;;
6513;SDS011;3290;47.716;9.070;2024-02-21T06:42:24;16.73;;;6.30;;
6513;SDS011;3290;47.716;9.070;2024-02-21T06:44:49;11.43;;;6.23;;
6513;SDS011;3290;47.716;9.070;2024-02-21T06:47:15;16.30;;;6.17;;
6513;SDS011;3290;47.716;9.070;2024-02-21T06:49:40;11.53;;;5.60;;
6513;SDS011;3290;47.716;9.070;2024-02-21T06:52:06;13.70;;;5.70;;
6513;SDS011;3290;47.716;9.070;2024-02-21T06:54:32;10.50;;;6.10;;
6513;SDS011;3290;47.716;9.070;2024-02-21T06:56:57;17.70;;;6.20;;
6513;SDS011;3290;47.716;9.070;2024-02-21T06:59:23;14.47;;;6.33;;
6513;SDS011;3290;47.716;9.070;2024-02-21T07:01:48;15.83;;;6.10;;
6513;SDS011;3290;47.716;9.070;2024-02-21T07:04:15;15.03;;;6.93;;
6513;SDS011;3290;47.716;9.070;2024-02-21T07:06:40;10.20;;;6.17;;
6513;SDS011;3290;47.716;9.070;2024-02-21T07:09:06;14.43;;;7.00;;
6513;SDS011;3290;47.716;9.070;2024-02-21T07:11:31;11.43;;;6.57;;
6513;SDS011;3290;47.716;9.070;2024-02-21T07:13:56;12.13;;;7.43;;
6513;SDS011;3290;47.716;9.070;2024-02-21T07:16:22;21.70;;;8.90;;
6513;SDS011;3290;47.716;9.070;2024-02-21T07:18:47;17.97;;;9.50;;
6513;SDS011;3290;47.716;9.070;2024-02-21T07:21:13;15.80;;;8.20;;
6513;SDS011;3290;47.716;9.070;2024-02-21T07:23:40;15.80;;;8.33;;
6513;SDS011;3290;47.716;9.070;2024-02-21T07:26:07;13.63;;;6.80;;
6513;SDS011;3290;47.716;9.070;2024-02-21T07:28:32;14.53;;;7.40;;
6513;SDS011;3290;47.716;9.070;2024-02-21T07:30:59;14.57;;;6.50;;
6513;SDS011;3290;47.716;9.070;2024-02-21T07:33:24;11.07;;;6.50;;
6513;SDS011;3290;47.716;9.070;2024-02-21T07:35:50;15.43;;;7.27;;
6513;SDS011;3290;47.716;9.070;2024-02-21T07:38:15;11.37;;;6.97;;
6513;SDS011;3290;47.716;9.070;2024-02-21T07:40:44;16.50;;;8.83;;
6513;SDS011;3290;47.716;9.070;2024-02-21T07:43:09;18.67;;;8.40;;
6513;SDS011;3290;47.716;9.070;2024-02-21T07:45:35;22.73;;;7.77;;
6513;SDS011;3290;47.716;9.070;2024-02-21T07:48:00;14.60;;;7.50;;
6513;SDS011;3290;47.716;9.070;2024-02-21T07:50:26;14.43;;;7.20;;
6513;SDS011;3290;47.716;9.070;2024-02-21T07:52:51;11.73;;;6.47;;
6513;SDS011;3290;47.716;9.070;2024-02-21T07:55:17;18.20;;;6.90;;
6513;SDS011;3290;47.716;9.070;2024-02-21T07:57:42;19.23;;;7.07;;
6513;SDS011;3290;47.716;9.070;2024-02-21T08:00:08;15.93;;;6.93;;
6513;SDS011;3290;47.716;9.070;2024-02-21T08:02:35;14.43;;;6.13;;
6513;SDS011;3290;47.716;9.070;2024-02-21T08:05:00;11.60;;;6.37;;
6513;SDS011;3290;47.716;9.070;2024-02-21T08:07:26;12.17;;;6.47;;
6513;SDS011;3290;47.716;9.070;2024-02-21T08:09:54;17.40;;;6.57;;
6513;SDS011;3290;47.716;9.070;2024-02-21T08:12:19;15.13;;;7.33;;
6513;SDS011;3290;47.716;9.070;2024-02-21T08:14:45;17.50;;;7.30;;
6513;SDS011;3290;47.716;9.070;2024-02-21T08:17:10;14.50;;;6.90;;
6513;SDS011;3290;47.716;9.070;2024-02-21T08:19:35;13.63;;;6.30;;
6513;SDS011;3290;47.716;9.070;2024-02-21T08:22:01;13.87;;;6.23;;
6513;SDS011;3290;47.716;9.070;2024-02-21T08:24:26;12.57;;;6.83;;
6513;SDS011;3290;47.716;9.070;2024-02-21T08:26:52;11.97;;;7.50;;
6513;SDS011;3290;47.716;9.070;2024-02-21T08:29:17;17.30;;;7.47;;
6513;SDS011;3290;47.716;9.070;2024-02-21T08:31:42;16.87;;;7.17;;
6513;SDS011;3290;47.716;9.070;2024-02-21T08:34:08;11.30;;;5.90;;
6513;SDS011;3290;47.716;9.070;2024-02-21T08:36:34;14.07;;;6.93;;
6513;SDS011;3290;47.716;9.070;2024-02-21T08:39:00;13.70;;;6.10;;
6513;SDS011;3290;47.716;9.070;2024-02-21T08:41:26;18.73;;;7.33;;
6513;SDS011;3290;47.716;9.070;2024-02-21T08:43:52;12.60;;;6.10;;
6513;SDS011;3290;47.716;9.070;2024-02-21T08:46:19;12.50;;;6.97;;
6513;SDS011;3290;47.716;9.070;2024-02-21T08:48:45;17.93;;;6.27;;
6513;SDS011;3290;47.716;9.070;2024-02-21T08:51:11;15.77;;;6.70;;
6513;SDS011;3290;47.716;9.070;2024-02-21T08:53:37;16.20;;;6.23;;
6513;SDS011;3290;47.716;9.070;2024-02-21T08:56:03;15.00;;;6.10;;
6513;SDS011;3290;47.716;9.070;2024-02-21T08:58:28;10.53;;;6.20;;
6513;SDS011;3290;47.716;9.070;2024-02-21T09:00:54;16.23;;;5.40;;
6513;SDS011;3290;47.716;9.070;2024-02-21T09:03:19;14.20;;;7.37;;
6513;SDS011;3290;47.716;9.070;2024-02-21T09:05:45;17.33;;;7.40;;
6513;SDS011;3290;47.716;9.070;2024-02-21T09:08:11;20.27;;;10.43;;
6513;SDS011;3290;47.716;9.070;2024-02-21T09:10:37;11.83;;;6.00;;
6513;SDS011;3290;47.716;9.070;2024-02-21T09:13:02;21.00;;;6.80;;
6513;SDS011;3290;47.716;9.070;2024-02-21T09:15:28;15.70;;;7.10;;
6513;SDS011;3290;47.716;9.070;2024-02-21T09:17:54;12.87;;;6.47;;
6513;SDS011;3290;47.716;9.070;2024-02-21T09:20:19;9.73;;;6.10;;
6513;SDS011;3290;47.716;9.070;2024-02-21T09:22:44;14.43;;;6.30;;
6513;SDS011;3290;47.716;9.070;2024-02-21T09:25:10;13.17;;;5.97;;
6513;SDS011;3290;47.716;9.070;2024-02-21T09:27:37;14.70;;;6.90;;
6513;SDS011;3290;47.716;9.070;2024-02-21T09:30:04;12.00;;;5.90;;
6513;SDS011;3290;47.716;9.070;2024-02-21T09:32:30;13.20;;;6.40;;
6513;SDS011;3290;47.716;9.070;2024-02-21T09:34:57;10.23;;;4.33;;
6513;SDS011;3290;47.716;9.070;2024-02-21T09:37:22;15.37;;;5.93;;
6513;SDS011;3290;47.716;9.070;2024-02-21T09:39:48;21.47;;;7.10;;
6513;SDS011;3290;47.716;9.070;2024-02-21T09:42:15;11.23;;;6.90;;
6513;SDS011;3290;47.716;9.070;2024-02-21T09:44:45;15.93;;;6.63;;
6513;SDS011;3290;47.716;9.070;2024-02-21T09:50:15;14.43;;;6.23;;
6513;SDS011;3290;47.716;9.070;2024-02-21T09:52:43;12.20;;;6.53;;
6513;SDS011;3290;47.716;9.070;2024-02-21T09:55:09;13.07;;;6.93;;
6513;SDS011;3290;47.716;9.070;2024-02-21T09:57:37;13.03;;;6.33;;
6513;SDS011;3290;47.716;9.070;2024-02-21T10:00:04;13.17;;;5.53;;
6513;SDS011;3290;47.716;9.070;2024-02-21T10:02:33;10.13;;;6.00;;
6513;SDS011;3290;47.716;9.070;2024-02-21T10:04:58;10.80;;;5.93;;
6513;SDS011;3290;47.716;9.070;2024-02-21T10:07:24;10.60;;;6.33;;
6513;SDS011;3290;47.716;9.070;2024-02-21T10:09:59;11.07;;;5.43;;
6513;SDS011;3290;47.716;9.070;2024-02-21T10:12:28;13.87;;;6.50;;
6513;SDS011;3290;47.716;9.070;2024-02-21T10:15:03;14.00;;;5.37;;
6513;SDS011;3290;47.716;9.070;2024-02-21T10:17:29;9.67;;;4.80;;
6513;SDS011;3290;47.716;9.070;2024-02-21T10:19:54;7.00;;;4.50;;
6513;SDS011;3290;47.716;9.070;2024-02-21T10:22:20;10.00;;;5.20;;
6513;SDS011;3290;47.716;9.070;2024-02-21T10:24:50;8.10;;;4.17;;
6513;SDS011;3290;47.716;9.070;2024-02-21T10:27:15;5.17;;;3.50;;
6513;SDS011;3290;47.716;9.070;2024-02-21T10:29:41;9.30;;;4.07;;
6513;SDS011;3290;47.716;9.070;2024-02-21T10:32:10;6.13;;;3.90;;
6513;SDS011;3290;47.716;9.070;2024-02-21T10:34:37;6.43;;;3.63;;
6513;SDS011;3290;47.716;9.070;2024-02-21T10:37:05;8.00;;;3.60;;
6513;SDS011;3290;47.716;9.070;2024-02-21T10:39:32;12.20;;;6.20;;
6513;SDS011;3290;47.716;9.070;2024-02-21T10:41:59;7.20;;;3.73;;
6513;SDS011;3290;47.716;9.070;2024-02-21T10:44:29;4.70;;;3.10;;
6513;SDS011;3290;47.716;9.070;2024-02-21T10:46:58;5.30;;;3.60;;
6513;SDS011;3290;47.716;9.070;2024-02-21T10:49:24;4.30;;;2.70;;
6513;SDS011;3290;47.716;9.070;2024-02-21T10:54:55;7.60;;;3.20;;
6513;SDS011;3290;47.716;9.070;2024-02-21T10:57:25;7.77;;;3.20;;
6513;SDS011;3290;47.716;9.070;2024-02-21T10:59:52;4.20;;;2.83;;
6513;SDS011;3290;47.716;9.070;2024-02-21T11:02:19;4.00;;;2.77;;
6513;SDS011;3290;47.716;9.070;2024-02-21T11:04:45;4.03;;;2.70;;
6513;SDS011;3290;47.716;9.070;2024-02-21T11:07:11;6.00;;;3.30;;
6513;SDS011;3290;47.716;9.070;2024-02-21T11:09:38;12.20;;;3.17;;
6513;SDS011;3290;47.716;9.070;2024-02-21T11:12:04;4.40;;;3.40;;
6513;SDS011;3290;47.716;9.070;2024-02-21T11:14:30;5.30;;;3.00;;
6513;SDS011;3290;47.716;9.070;2024-02-21T11:17:14;4.43;;;2.83;;
6513;SDS011;3290;47.716;9.070;2024-02-21T11:19:43;4.43;;;2.87;;
6513;SDS011;3290;47.716;9.070;2024-02-21T11:22:18;6.63;;;3.10;;
6513;SDS011;3290;47.716;9.070;2024-02-21T11:24:44;6.30;;;3.37;;
6513;SDS011;3290;47.716;9.070;2024-02-21T11:27:20;5.00;;;3.20;;
6513;SDS011;3290;47.716;9.070;2024-02-21T11:29:47;6.90;;;2.70;;
6513;SDS011;3290;47.716;9.070;2024-02-21T11:32:17;5.60;;;3.00;;
6513;SDS011;3290;47.716;9.070;2024-02-21T11:35:19;4.50;;;2.67;;
6513;SDS011;3290;47.716;9.070;2024-02-21T11:37:44;5.63;;;3.43;;
6513;SDS011;3290;47.716;9.070;2024-02-21T11:40:11;7.50;;;3.53;;
6513;SDS011;3290;47.716;9.070;2024-02-21T11:42:37;4.47;;;3.03;;
6513;SDS011;3290;47.716;9.070;2024-02-21T11:45:02;8.07;;;3.70;;
6513;SDS011;3290;47.716;9.070;2024-02-21T11:47:28;6.07;;;3.00;;
6513;SDS011;3290;47.716;9.070;2024-02-21T11:49:54;3.83;;;2.93;;
6513;SDS011;3290;47.716;9.070;2024-02-21T11:52:23;12.70;;;3.13;;
6513;SDS011;3290;47.716;9.070;2024-02-21T11:54:52;6.20;;;3.40;;
6513;SDS011;3290;47.716;9.070;2024-02-21T11:57:19;6.87;;;3.10;;
6513;SDS011;3290;47.716;9.070;2024-02-21T11:59:45;4.70;;;3.10;;
6513;SDS011;3290;47.716;9.070;2024-02-21T12:02:11;7.90;;;3.27;;
6513;SDS011;3290;47.716;9.070;2024-02-21T12:04:37;6.00;;;2.57;;
6513;SDS011;3290;47.716;9.070;2024-02-21T12:07:03;5.13;;;3.27;;
6513;SDS011;3290;47.716;9.070;2024-02-21T12:09:31;5.70;;;3.07;;
6513;SDS011;3290;47.716;9.070;2024-02-21T12:11:59;5.07;;;3.10;;
6513;SDS011;3290;47.716;9.070;2024-02-21T12:14:26;5.57;;;2.80;;
6513;SDS011;3290;47.716;9.070;2024-02-21T12:16:53;4.33;;;2.60;;
6513;SDS011;3290;47.716;9.070;2024-02-21T12:19:19;3.70;;;2.87;;
6513;SDS011;3290;47.716;9.070;2024-02-21T12:21:45;2.80;;;2.60;;
6513;SDS011;3290;47.716;9.070;2024-02-21T12:24:23;8.30;;;2.93;;
6513;SDS011;3290;47.716;9.070;2024-02-21T12:26:49;9.23;;;2.90;;
6513;SDS011;3290;47.716;9.070;2024-02-21T12:29:18;2.90;;;2.40;;
6513;SDS011;3290;47.716;9.070;2024-02-21T12:31:47;5.10;;;3.73;;
6513;SDS011;3290;47.716;9.070;2024-02-21T12:34:13;13.47;;;3.20;;
6513;SDS011;3290;47.716;9.070;2024-02-21T12:36:43;4.77;;;2.87;;
6513;SDS011;3290;47.716;9.070;2024-02-21T12:39:14;8.37;;;3.23;;
6513;SDS011;3290;47.716;9.070;2024-02-21T12:41:40;5.47;;;2.73;;
6513;SDS011;3290;47.716;9.070;2024-02-21T12:44:06;6.50;;;3.07;;
6513;SDS011;3290;47.716;9.070;2024-02-21T12:46:36;6.03;;;2.50;;
6513;SDS011;3290;47.716;9.070;2024-02-21T12:49:02;4.63;;;2.67;;
6513;SDS011;3290;47.716;9.070;2024-02-21T12:51:28;5.70;;;2.27;;
6513;SDS011;3290;47.716;9.070;2024-02-21T12:53:54;2.20;;;1.93;;
6513;SDS011;3290;47.716;9.070;2024-02-21T12:56:20;5.73;;;2.30;;
6513;SDS011;3290;47.716;9.070;2024-02-21T12:58:45;5.37;;;3.00;;
6513;SDS011;3290;47.716;9.070;2024-02-21T13:01:11;5.83;;;2.30;;
6513;SDS011;3290;47.716;9.070;2024-02-21T13:03:37;3.10;;;2.23;;
6513;SDS011;3290;47.716;9.070;2024-02-21T13:06:03;2.87;;;2.47;;
6513;SDS011;3290;47.716;9.070;2024-02-21T13:08:28;2.07;;;1.87;;
6513;SDS011;3290;47.716;9.070;2024-02-21T13:10:54;3.60;;;2.20;;
6513;SDS011;3290;47.716;9.070;2024-02-21T13:13:19;5.43;;;2.17;;
6513;SDS011;3290;47.716;9.070;2024-02-21T13:15:45;7.70;;;3.03;;
6513;SDS011;3290;47.716;9.070;2024-02-21T13:18:10;3.60;;;2.53;;
6513;SDS011;3290;47.716;9.070;2024-02-21T13:20:36;3.57;;;1.87;;
6513;SDS011;3290;47.716;9.070;2024-02-21T13:23:02;5.13;;;2.77;;
6513;SDS011;3290;47.716;9.070;2024-02-21T13:25:27;3.67;;;2.40;;
6513;SDS011;3290;47.716;9.070;2024-02-21T13:27:53;2.90;;;1.80;;
6513;SDS011;3290;47.716;9.070;2024-02-21T13:30:18;4.07;;;2.33;;
6513;SDS011;3290;47.716;9.070;2024-02-21T13:32:44;2.80;;;2.20;;
6513;SDS011;3290;47.716;9.070;2024-02-21T13:35:12;9.20;;;2.47;;
6513;SDS011;3290;47.716;9.070;2024-02-21T13:37:39;5.83;;;2.73;;
6513;SDS011;3290;47.716;9.070;2024-02-21T13:40:05;4.30;;;2.90;;
6513;SDS011;3290;47.716;9.070;2024-02-21T13:42:31;3.30;;;2.30;;
6513;SDS011;3290;47.716;9.070;2024-02-21T13:44:56;5.73;;;2.60;;
6513;SDS011;3290;47.716;9.070;2024-02-21T13:47:22;4.67;;;3.00;;
6513;SDS011;3290;47.716;9.070;2024-02-21T13:49:47;4.10;;;2.43;;
6513;SDS011;3290;47.716;9.070;2024-02-21T13:52:13;6.10;;;2.87;;
6513;SDS011;3290;47.716;9.070;2024-02-21T13:54:39;5.40;;;3.13;;
6513;SDS011;3290;47.716;9.070;2024-02-21T13:57:04;5.30;;;2.50;;
6513;SDS011;3290;47.716;9.070;2024-02-21T13:59:30;3.80;;;2.43;;
6513;SDS011;3290;47.716;9.070;2024-02-21T14:01:55;3.83;;;2.40;;
6513;SDS011;3290;47.716;9.070;2024-02-21T14:04:21;8.77;;;2.50;;
6513;SDS011;3290;47.716;9.070;2024-02-21T14:06:46;3.60;;;2.40;;
6513;SDS011;3290;47.716;9.070;2024-02-21T14:09:12;2.43;;;2.23;;
6513;SDS011;3290;47.716;9.070;2024-02-21T14:11:38;3.73;;;2.03;;
6513;SDS011;3290;47.716;9.070;2024-02-21T14:14:04;3.07;;;2.30;;
6513;SDS011;3290;47.716;9.070;2024-02-21T14:16:30;3.37;;;1.90;;
6513;SDS011;3290;47.716;9.070;2024-02-21T14:18:55;3.63;;;1.97;;
6513;SDS011;3290;47.716;9.070;2024-02-21T14:21:21;6.03;;;1.90;;
6513;SDS011;3290;47.716;9.070;2024-02-21T14:23:47;3.50;;;2.10;;
6513;SDS011;3290;47.716;9.070;2024-02-21T14:26:12;14.80;;;6.90;;
6513;SDS011;3290;47.716;9.070;2024-02-21T14:28:39;9.43;;;4.40;;
6513;SDS011;3290;47.716;9.070;2024-02-21T14:31:05;6.13;;;2.37;;
6513;SDS011;3290;47.716;9.070;2024-02-21T14:33:34;4.67;;;2.33;;
6513;SDS011;3290;47.716;9.070;2024-02-21T14:35:59;6.70;;;2.47;;
6513;SDS011;3290;47.716;9.070;2024-02-21T14:38:25;3.20;;;1.40;;
6513;SDS011;3290;47.716;9.070;2024-02-21T14:40:50;2.43;;;1.70;;
6513;SDS011;3290;47.716;9.070;2024-02-21T14:43:15;2.50;;;1.60;;
6513;SDS011;3290;47.716;9.070;2024-02-21T14:45:42;2.63;;;1.90;;
6513;SDS011;3290;47.716;9.070;2024-02-21T14:48:08;6.33;;;2.00;;
6513;SDS011;3290;47.716;9.070;2024-02-21T14:50:34;2.67;;;1.87;;
6513;SDS011;3290;47.716;9.070;2024-02-21T14:52:59;5.97;;;2.50;;
6513;SDS011;3290;47.716;9.070;2024-02-21T14:55:24;2.10;;;1.70;;
6513;SDS011;3290;47.716;9.070;2024-02-21T14:57:50;7.97;;;1.80;;
6513;SDS011;3290;47.716;9.070;2024-02-21T15:00:15;3.00;;;1.93;;
6513;SDS011;3290;47.716;9.070;2024-02-21T15:02:41;4.50;;;1.73;;
6513;SDS011;3290;47.716;9.070;2024-02-21T15:05:07;2.30;;;1.87;;
6513;SDS011;3290;47.716;9.070;2024-02-21T15:07:33;2.00;;;1.80;;
6513;SDS011;3290;47.716;9.070;2024-02-21T15:09:59;2.73;;;1.40;;